Time;durP1;ratioP1;P1;durP2;ratioP2;P2;SDS_P1;SDS_P2;PMS_P1;PMS_P2;Temp;Humidity;BMP_temperature;BMP_pressure;BME280_temperature;BME280_humidity;BME280_pressure;Samples;Min_cycle;Max_cycle;Signal;HPM_P1;HPM_P2
2022/05/05 00:00:53;;;;;;;15.63;13.93;;;14.90;99.90;;;;;;2498007;23;20007;-73
2022/05/05 00:01:53;;;;;;;14.60;13.10;;;14.90;99.90;;;;;;2497463;23;20087;-71
2022/05/05 00:02:54;;;;;;;16.48;14.23;;;14.90;99.90;;;;;;2484015;23;20098;-72
2022/05/05 00:03:55;;;;;;;15.50;13.90;;;14.90;99.90;;;;;;2483454;23;20501;-73
2022/05/05 00:04:55;;;;;;;14.43;13.02;;;14.90;99.90;;;;;;2495542;23;20034;-72
2022/05/05 00:05:56;;;;;;;14.23;12.82;;;14.90;99.90;;;;;;2483741;23;20759;-73
2022/05/05 00:06:57;;;;;;;14.80;13.18;;;14.90;99.90;;;;;;2483216;23;20016;-72
2022/05/05 00:07:57;;;;;;;15.18;13.57;;;14.90;99.90;;;;;;2495981;23;20011;-72
2022/05/05 00:08:58;;;;;;;15.52;13.80;;;14.90;99.90;;;;;;2496283;23;20035;-72
2022/05/05 00:14:23;;;;;;;15.15;13.65;;;14.90;99.90;;;;;;2496016;23;20037;-72
2022/05/05 00:15:17;;;;;;;15.73;13.93;;;14.90;99.90;;;;;;2496113;23;20018;-73
2022/05/05 00:16:19;;;;;;;15.68;14.05;;;14.80;99.90;;;;;;2496366;23;20050;-73
2022/05/05 00:17:19;;;;;;;14.68;13.20;;;14.80;99.90;;;;;;2495945;23;20011;-74
2022/05/05 00:18:20;;;;;;;18.17;14.10;;;14.80;99.90;;;;;;2496489;23;20436;-71
2022/05/05 00:19:21;;;;;;;16.80;13.80;;;14.80;99.90;;;;;;2472281;24;20071;-73
2022/05/05 00:20:22;;;;;;;16.77;14.02;;;14.80;99.90;;;;;;2471981;24;20012;-74
2022/05/05 00:21:22;;;;;;;15.10;13.38;;;14.80;99.90;;;;;;2496022;23;20007;-72
2022/05/05 00:22:23;;;;;;;14.32;12.90;;;14.80;99.90;;;;;;2496353;23;20004;-73
2022/05/05 00:23:24;;;;;;;14.18;12.77;;;14.80;99.90;;;;;;2483424;23;20464;-75
2022/05/05 00:24:24;;;;;;;14.95;13.30;;;14.80;99.90;;;;;;2483720;23;20015;-72
2022/05/05 00:25:25;;;;;;;14.25;12.82;;;14.80;99.90;;;;;;2495440;23;20082;-75
2022/05/05 00:26:26;;;;;;;14.77;13.27;;;14.80;99.90;;;;;;2496322;23;20079;-74
2022/05/05 00:27:28;;;;;;;14.30;12.88;;;14.80;99.90;;;;;;2495100;23;20014;-74
2022/05/05 00:28:29;;;;;;;15.05;13.50;;;14.80;99.90;;;;;;2507068;23;20094;-72
2022/05/05 00:29:29;;;;;;;14.60;13.20;;;14.80;99.90;;;;;;2507273;23;20002;-73
2022/05/05 00:30:30;;;;;;;15.45;13.85;;;14.80;99.90;;;;;;2483504;23;20450;-74
2022/05/05 00:31:31;;;;;;;15.48;13.88;;;14.80;99.90;;;;;;2483544;23;20067;-74
2022/05/05 00:32:32;;;;;;;15.38;13.77;;;14.80;99.90;;;;;;2507177;23;20076;-76
2022/05/05 00:33:33;;;;;;;15.25;13.75;;;14.70;99.90;;;;;;2507152;23;20002;-73
2022/05/05 00:34:33;;;;;;;15.07;13.57;;;14.70;99.90;;;;;;2495189;23;20011;-72
2022/05/05 00:35:34;;;;;;;15.52;13.93;;;14.70;99.90;;;;;;2496901;23;20059;-73
2022/05/05 00:36:35;;;;;;;15.70;13.90;;;14.70;99.90;;;;;;2508729;23;20017;-72
2022/05/05 00:37:36;;;;;;;16.17;14.50;;;14.70;99.90;;;;;;2508178;23;20030;-72
2022/05/05 00:38:36;;;;;;;16.17;14.43;;;14.80;99.90;;;;;;2500448;23;20349;-73
2022/05/05 00:39:37;;;;;;;16.45;14.75;;;14.70;99.90;;;;;;2505158;23;19999;-74
2022/05/05 00:40:37;;;;;;;18.20;15.18;;;14.70;99.90;;;;;;2504914;23;20015;-75
2022/05/05 00:41:42;;;;;;;16.45;14.82;;;14.70;99.90;;;;;;2505334;23;20012;-75
2022/05/05 00:42:42;;;;;;;15.95;14.35;;;14.70;99.90;;;;;;2505508;23;20014;-73
2022/05/05 00:43:43;;;;;;;16.27;14.60;;;14.70;99.90;;;;;;2506034;23;20020;-74
2022/05/05 00:44:44;;;;;;;17.45;15.68;;;14.70;99.90;;;;;;2505796;23;20010;-72
2022/05/05 00:45:44;;;;;;;16.60;14.80;;;14.70;99.90;;;;;;2494048;23;20028;-72
2022/05/05 00:46:49;;;;;;;16.50;14.68;;;14.70;99.90;;;;;;2493451;23;20003;-76
2022/05/05 00:47:50;;;;;;;18.17;14.98;;;14.70;99.90;;;;;;2506410;23;20002;-72
2022/05/05 00:48:51;;;;;;;15.20;13.60;;;14.70;99.90;;;;;;2506333;23;19988;-72
2022/05/05 00:49:52;;;;;;;16.92;15.13;;;14.70;99.90;;;;;;2504340;23;20034;-74
2022/05/05 00:50:54;;;;;;;16.42;14.68;;;14.70;99.90;;;;;;2505363;23;20019;-71
2022/05/05 00:51:57;;;;;;;16.50;14.80;;;14.70;99.90;;;;;;2505991;23;20007;-71
2022/05/05 00:52:58;;;;;;;16.10;14.40;;;14.70;99.90;;;;;;2504152;23;20007;-74
2022/05/05 00:53:58;;;;;;;16.10;14.50;;;14.70;99.90;;;;;;2500332;23;20716;-71
2022/05/05 00:55:00;;;;;;;15.48;13.88;;;14.80;99.90;;;;;;2496900;23;20436;-72
2022/05/05 00:56:08;;;;;;;15.60;13.98;;;14.80;99.90;;;;;;2497528;23;20066;-72
2022/05/05 00:57:10;;;;;;;16.15;14.18;;;14.80;99.90;;;;;;2497343;23;20063;-75
2022/05/05 00:58:12;;;;;;;16.60;14.80;;;14.70;99.90;;;;;;2508362;23;20069;-73
2022/05/05 00:59:13;;;;;;;17.67;15.40;;;14.70;99.90;;;;;;2508304;23;20006;-75
2022/05/05 01:00:14;;;;;;;16.52;14.48;;;14.70;99.90;;;;;;2498022;23;20052;-74
2022/05/05 01:01:21;;;;;;;15.68;14.07;;;14.70;99.90;;;;;;2498045;23;20082;-74
2022/05/05 01:02:22;;;;;;;16.77;14.20;;;14.70;99.90;;;;;;2498202;23;20003;-70
2022/05/05 01:03:23;;;;;;;14.45;12.98;;;14.70;99.90;;;;;;2498058;23;20147;-77
2022/05/05 01:04:25;;;;;;;14.27;12.90;;;14.70;99.90;;;;;;2485524;23;20034;-72
2022/05/05 01:05:27;;;;;;;14.70;13.30;;;14.70;99.90;;;;;;2486338;23;20567;-72
2022/05/05 01:06:30;;;;;;;14.52;13.05;;;14.70;99.90;;;;;;2486757;23;20008;-72
2022/05/05 01:07:30;;;;;;;15.63;14.02;;;14.70;99.90;;;;;;2486170;23;20023;-75
2022/05/05 01:08:33;;;;;;;16.50;14.80;;;14.70;99.90;;;;;;2485874;23;20321;-72
2022/05/05 01:09:35;;;;;;;15.57;13.98;;;14.70;99.90;;;;;;2485169;23;20055;-73
2022/05/05 01:10:35;;;;;;;15.50;13.93;;;14.70;99.90;;;;;;2495977;23;20059;-74
2022/05/05 01:11:36;;;;;;;16.45;14.75;;;14.70;99.90;;;;;;2484022;23;20033;-72
2022/05/05 01:12:37;;;;;;;15.80;14.13;;;14.60;99.90;;;;;;2483986;23;20033;-73
2022/05/05 01:13:42;;;;;;;15.98;14.05;;;14.60;99.90;;;;;;2496522;23;20034;-75
2022/05/05 01:14:44;;;;;;;16.45;14.73;;;14.70;99.90;;;;;;2496341;23;20441;-74
2022/05/05 01:15:45;;;;;;;15.60;14.00;;;14.70;99.90;;;;;;2496234;23;20083;-72
2022/05/05 01:16:46;;;;;;;15.48;13.90;;;14.70;99.90;;;;;;2496339;23;20059;-74
2022/05/05 01:17:46;;;;;;;16.08;14.38;;;14.70;99.90;;;;;;2483560;23;20007;-73
2022/05/05 01:18:47;;;;;;;16.98;14.90;;;14.70;99.90;;;;;;2483683;23;20004;-74
2022/05/05 01:19:47;;;;;;;18.02;14.77;;;14.60;99.90;;;;;;2495803;23;20499;-75
2022/05/05 01:20:52;;;;;;;16.48;14.77;;;14.70;99.90;;;;;;2495201;23;20014;-74
2022/05/05 01:21:53;;;;;;;15.70;14.10;;;14.60;99.90;;;;;;2495599;23;20023;-74
2022/05/05 01:22:54;;;;;;;16.17;14.43;;;14.60;99.90;;;;;;2483579;23;20037;-74
2022/05/05 01:23:55;;;;;;;16.02;14.38;;;14.60;99.90;;;;;;2483545;23;20000;-73
2022/05/05 01:28:54;;;;;;;15.60;13.90;;;14.60;99.90;;;;;;2496126;23;20082;-73
2022/05/05 01:29:55;;;;;;;16.58;14.88;;;14.60;99.90;;;;;;2483288;23;20124;-74
2022/05/05 01:30:56;;;;;;;16.70;14.90;;;14.60;99.90;;;;;;2483491;23;20397;-73
2022/05/05 01:31:57;;;;;;;16.70;14.90;;;14.60;99.90;;;;;;2483172;23;20047;-74
2022/05/05 01:32:58;;;;;;;16.30;14.52;;;14.60;99.90;;;;;;2483129;23;20360;-73
2022/05/05 01:33:58;;;;;;;17.50;15.07;;;14.60;99.90;;;;;;2506804;23;20011;-73
2022/05/05 01:35:00;;;;;;;17.60;15.45;;;14.60;99.90;;;;;;2506758;23;20035;-73
2022/05/05 01:36:01;;;;;;;16.48;14.75;;;14.60;99.90;;;;;;2495731;23;20467;-72
2022/05/05 01:37:01;;;;;;;16.33;14.73;;;14.60;99.90;;;;;;2495361;23;20010;-74
2022/05/05 01:38:03;;;;;;;17.35;15.65;;;14.60;99.90;;;;;;2494918;23;20042;-72
2022/05/05 01:39:03;;;;;;;18.25;16.35;;;14.50;99.90;;;;;;2495147;23;20011;-71
2022/05/05 01:40:04;;;;;;;17.38;15.52;;;14.50;99.90;;;;;;2494849;23;20038;-73
2022/05/05 01:41:06;;;;;;;18.15;15.80;;;14.50;99.90;;;;;;2471618;24;20016;-72
2022/05/05 01:42:07;;;;;;;17.27;15.55;;;14.50;99.90;;;;;;2471781;23;20008;-74
2022/05/05 01:43:08;;;;;;;17.20;15.40;;;14.50;99.90;;;;;;2483698;23;20064;-73
2022/05/05 01:44:09;;;;;;;16.65;14.98;;;14.50;99.90;;;;;;2494784;23;20007;-74
2022/05/05 01:45:10;;;;;;;17.83;15.95;;;14.50;99.90;;;;;;2494995;23;20181;-73
2022/05/05 01:46:10;;;;;;;18.48;16.38;;;14.40;99.90;;;;;;2484036;23;20016;-72
2022/05/05 01:47:11;;;;;;;18.75;16.02;;;14.50;99.90;;;;;;2482746;23;20333;-75
2022/05/05 01:48:12;;;;;;;17.77;16.02;;;14.40;99.90;;;;;;2483229;23;20016;-74
2022/05/05 01:49:13;;;;;;;17.92;16.10;;;14.40;99.90;;;;;;2483093;23;20020;-74
2022/05/05 01:50:14;;;;;;;17.45;15.50;;;14.40;99.90;;;;;;2483017;23;20016;-75
2022/05/05 01:51:14;;;;;;;20.40;17.30;;;14.40;99.90;;;;;;2494833;23;20022;-74
2022/05/05 01:52:15;;;;;;;18.75;16.73;;;14.40;99.90;;;;;;2483824;23;20011;-75
2022/05/05 01:53:15;;;;;;;19.55;17.40;;;14.40;99.90;;;;;;2483133;23;20016;-74
2022/05/05 01:54:16;;;;;;;18.55;15.80;;;14.40;99.90;;;;;;2482893;23;20036;-74
2022/05/05 01:55:17;;;;;;;18.10;16.20;;;14.40;99.90;;;;;;2494411;23;20388;-75
2022/05/05 01:56:17;;;;;;;19.20;17.13;;;14.40;99.90;;;;;;2483822;23;20668;-74
2022/05/05 01:57:18;;;;;;;18.25;16.05;;;14.40;99.90;;;;;;2483479;23;20500;-75
2022/05/05 01:58:19;;;;;;;18.55;16.55;;;14.40;99.90;;;;;;2483822;23;20004;-73
2022/05/05 01:59:19;;;;;;;18.02;16.00;;;14.40;99.90;;;;;;2483832;23;20031;-75
2022/05/05 02:00:20;;;;;;;18.05;16.25;;;14.40;99.90;;;;;;2483700;23;20008;-75
2022/05/05 02:01:21;;;;;;;18.23;16.33;;;14.50;99.90;;;;;;2483789;23;20059;-72
2022/05/05 02:02:21;;;;;;;17.88;16.02;;;14.40;99.90;;;;;;2483759;23;20023;-75
2022/05/05 02:03:22;;;;;;;19.17;17.17;;;14.40;99.90;;;;;;2483320;23;20011;-75
2022/05/05 02:04:22;;;;;;;18.42;16.38;;;14.40;99.90;;;;;;2483300;23;20384;-74
2022/05/05 02:05:24;;;;;;;18.30;16.40;;;14.40;99.90;;;;;;2483809;23;20453;-74
2022/05/05 02:06:24;;;;;;;19.00;16.98;;;14.50;99.90;;;;;;2483968;23;20026;-74
2022/05/05 02:07:25;;;;;;;17.70;15.85;;;14.40;99.90;;;;;;2483455;23;20008;-74
2022/05/05 02:08:25;;;;;;;18.63;16.73;;;14.40;99.90;;;;;;2483574;23;20012;-74
2022/05/05 02:09:26;;;;;;;20.50;16.75;;;14.40;99.90;;;;;;2482956;23;20011;-74
2022/05/05 02:10:26;;;;;;;20.50;17.45;;;14.40;99.90;;;;;;2482904;23;20018;-74
2022/05/05 02:11:27;;;;;;;18.55;16.55;;;14.40;99.90;;;;;;2483049;23;20035;-73
2022/05/05 02:12:33;;;;;;;19.05;17.05;;;14.40;99.90;;;;;;2483154;23;20539;-74
2022/05/05 02:13:33;;;;;;;18.63;16.67;;;14.40;99.90;;;;;;2483948;23;20019;-75
2022/05/05 02:14:34;;;;;;;18.25;16.35;;;14.40;99.90;;;;;;2483945;23;20372;-75
2022/05/05 02:15:35;;;;;;;20.27;18.20;;;14.40;99.90;;;;;;2483709;23;20012;-75
2022/05/05 02:16:35;;;;;;;18.98;16.90;;;14.40;99.90;;;;;;2483723;23;20078;-75
2022/05/05 02:17:37;;;;;;;19.30;16.45;;;14.40;99.90;;;;;;2483130;23;20011;-73
2022/05/05 02:18:37;;;;;;;19.83;17.73;;;14.30;99.90;;;;;;2483769;23;20011;-73
2022/05/05 02:19:39;;;;;;;20.05;17.90;;;14.30;99.90;;;;;;2483754;23;20007;-73
2022/05/05 02:20:40;;;;;;;21.17;18.25;;;14.40;99.90;;;;;;2483784;23;20008;-73
2022/05/05 02:21:41;;;;;;;20.40;18.25;;;14.40;99.90;;;;;;2483896;23;19999;-73
2022/05/05 02:22:42;;;;;;;21.15;18.25;;;14.30;99.90;;;;;;2494393;23;20484;-73
2022/05/05 02:23:42;;;;;;;22.67;18.25;;;14.30;99.90;;;;;;2494797;23;20652;-74
2022/05/05 02:24:43;;;;;;;19.52;17.42;;;14.30;99.90;;;;;;2482935;23;20580;-74
2022/05/05 02:25:43;;;;;;;18.98;16.98;;;14.30;99.90;;;;;;2485691;23;20000;-73
2022/05/05 02:26:44;;;;;;;24.27;20.10;;;14.30;99.90;;;;;;2489740;23;20003;-73
2022/05/05 02:27:47;;;;;;;20.80;18.60;;;14.30;99.90;;;;;;2489671;23;20007;-73
2022/05/05 02:28:49;;;;;;;21.08;18.63;;;14.30;99.90;;;;;;2490708;23;20075;-73
2022/05/05 02:29:50;;;;;;;23.13;20.30;;;14.20;99.90;;;;;;2484156;23;20008;-73
2022/05/05 02:30:51;;;;;;;20.25;18.15;;;14.20;99.90;;;;;;2483033;23;20012;-73
2022/05/05 02:31:52;;;;;;;18.95;16.98;;;14.20;99.90;;;;;;2483172;23;20585;-73
2022/05/05 02:32:52;;;;;;;19.38;17.27;;;14.20;99.90;;;;;;2483270;23;20369;-73
2022/05/05 02:33:53;;;;;;;19.55;17.27;;;14.20;99.90;;;;;;2483216;23;20008;-73
2022/05/05 02:34:53;;;;;;;18.15;16.25;;;14.30;99.90;;;;;;2495855;23;20047;-73
2022/05/05 02:38:47;;;;;;;19.00;16.95;;;14.20;99.90;;;;;;2483909;23;20059;-73
2022/05/05 02:39:48;;;;;;;21.38;18.38;;;14.20;99.90;;;;;;2483914;23;20035;-74
2022/05/05 02:40:49;;;;;;;18.95;16.95;;;14.20;99.90;;;;;;2483730;23;20357;-73
2022/05/05 02:41:49;;;;;;;20.20;17.17;;;14.20;99.90;;;;;;2483980;23;20008;-73
2022/05/05 02:42:50;;;;;;;19.88;17.75;;;14.20;99.90;;;;;;2484245;23;20886;-73
2022/05/05 02:43:50;;;;;;;19.33;17.17;;;14.10;99.90;;;;;;2483982;23;20087;-72
2022/05/05 02:44:51;;;;;;;19.48;17.38;;;14.10;99.90;;;;;;2483796;23;20012;-72
2022/05/05 02:45:51;;;;;;;22.10;19.67;;;14.10;99.90;;;;;;2484147;23;20003;-72
2022/05/05 02:46:52;;;;;;;20.25;18.10;;;14.10;99.90;;;;;;2483770;23;20004;-73
2022/05/05 02:47:53;;;;;;;19.98;17.88;;;14.10;99.90;;;;;;2484577;23;20008;-72
2022/05/05 02:48:57;;;;;;;19.73;17.27;;;14.10;99.90;;;;;;2486518;23;20018;-72
2022/05/05 02:49:57;;;;;;;19.48;16.67;;;14.10;99.90;;;;;;2499149;23;20057;-73
2022/05/05 02:50:58;;;;;;;20.65;18.45;;;14.10;99.90;;;;;;2494920;23;20003;-73
2022/05/05 02:51:59;;;;;;;19.67;16.95;;;14.10;99.90;;;;;;2495068;23;20079;-73
2022/05/05 02:52:59;;;;;;;19.40;16.77;;;14.10;99.90;;;;;;2483979;23;20019;-73
2022/05/05 02:55:19;;;;;;;21.58;18.85;;;14.10;99.90;;;;;;2483917;23;20018;-71
2022/05/05 02:56:20;;;;;;;20.98;17.40;;;14.10;99.90;;;;;;2483873;23;20000;-72
2022/05/05 02:57:23;;;;;;;23.60;20.58;;;14.10;99.90;;;;;;2483507;23;20116;-72
2022/05/05 02:58:23;;;;;;;22.30;19.85;;;14.10;99.90;;;;;;2483905;23;20107;-72
2022/05/05 02:59:24;;;;;;;22.10;19.70;;;14.10;99.90;;;;;;2483904;23;20015;-72
2022/05/05 03:00:24;;;;;;;22.33;19.60;;;14.10;99.90;;;;;;2483667;23;20004;-72
2022/05/05 03:01:25;;;;;;;24.48;21.42;;;14.10;99.90;;;;;;2494491;23;20100;-72
2022/05/05 03:02:26;;;;;;;23.00;20.40;;;14.00;99.90;;;;;;2494770;23;20385;-72
2022/05/05 03:03:26;;;;;;;21.17;18.05;;;14.00;99.90;;;;;;2494918;23;20404;-73
2022/05/05 03:04:27;;;;;;;20.45;17.98;;;14.00;99.90;;;;;;2484087;23;20528;-73
2022/05/05 03:05:28;;;;;;;21.00;18.00;;;14.00;99.90;;;;;;2483797;23;20011;-74
2022/05/05 03:06:28;;;;;;;21.00;18.65;;;14.00;99.90;;;;;;2483959;23;20077;-74
2022/05/05 03:07:29;;;;;;;22.00;18.58;;;14.00;99.90;;;;;;2483491;23;20015;-74
2022/05/05 03:08:29;;;;;;;20.02;17.40;;;14.00;99.90;;;;;;2483093;23;20492;-74
2022/05/05 03:09:30;;;;;;;19.42;17.33;;;14.00;99.90;;;;;;2483211;23;20015;-74
2022/05/05 03:10:30;;;;;;;21.85;18.27;;;14.00;99.90;;;;;;2483602;23;20465;-74
2022/05/05 03:11:32;;;;;;;20.33;18.23;;;14.00;99.90;;;;;;2471748;24;20008;-73
2022/05/05 03:12:33;;;;;;;20.38;17.85;;;14.00;99.90;;;;;;2471646;23;20071;-74
2022/05/05 03:13:34;;;;;;;20.77;17.70;;;14.00;99.90;;;;;;2483700;23;20345;-73
2022/05/05 03:14:34;;;;;;;19.92;17.25;;;13.90;99.90;;;;;;2483716;23;20016;-74
2022/05/05 03:15:35;;;;;;;20.85;18.33;;;13.90;99.90;;;;;;2483795;23;20774;-73
2022/05/05 03:16:35;;;;;;;19.38;17.25;;;13.90;99.90;;;;;;2494820;23;20034;-74
2022/05/05 03:17:36;;;;;;;21.33;18.13;;;13.90;99.90;;;;;;2494251;23;20035;-73
2022/05/05 03:18:40;;;;;;;21.30;18.85;;;13.90;99.90;;;;;;2482734;23;20083;-73
2022/05/05 03:19:41;;;;;;;19.88;17.77;;;13.90;99.90;;;;;;2483588;23;20006;-73
2022/05/05 03:20:42;;;;;;;21.33;18.17;;;13.90;99.90;;;;;;2494592;23;20003;-74
2022/05/05 03:21:43;;;;;;;21.15;17.30;;;13.90;99.90;;;;;;2483701;23;20004;-72
2022/05/05 03:22:44;;;;;;;20.70;17.67;;;13.80;99.90;;;;;;2483938;23;19996;-74
2022/05/05 03:23:44;;;;;;;21.58;18.95;;;13.80;99.90;;;;;;2483807;23;20091;-74
2022/05/05 03:24:45;;;;;;;20.95;18.42;;;13.80;99.90;;;;;;2483960;23;20007;-74
2022/05/05 03:25:45;;;;;;;20.73;18.13;;;13.80;99.90;;;;;;2484245;23;20004;-74
2022/05/05 03:26:46;;;;;;;20.88;18.63;;;13.80;99.90;;;;;;2483935;23;20003;-74
2022/05/05 03:27:46;;;;;;;21.73;18.13;;;13.70;99.90;;;;;;2483431;23;20000;-73
2022/05/05 03:28:47;;;;;;;20.10;17.92;;;13.70;99.90;;;;;;2483793;23;20079;-73
2022/05/05 03:29:48;;;;;;;26.63;22.55;;;13.70;99.90;;;;;;2483969;23;20008;-73
2022/05/05 03:30:49;;;;;;;23.00;20.13;;;13.80;99.90;;;;;;2483664;23;20008;-73
2022/05/05 03:31:50;;;;;;;23.33;19.73;;;13.70;99.90;;;;;;2483848;23;20015;-73
2022/05/05 03:32:50;;;;;;;22.55;19.23;;;13.70;99.90;;;;;;2483688;23;20082;-74
2022/05/05 03:33:52;;;;;;;21.10;18.75;;;13.70;99.90;;;;;;2483027;23;20604;-73
2022/05/05 03:34:53;;;;;;;22.67;18.45;;;13.70;99.90;;;;;;2483586;23;20355;-73
2022/05/05 03:35:53;;;;;;;20.58;17.92;;;13.60;99.90;;;;;;2484260;23;20011;-73
2022/05/05 03:36:54;;;;;;;19.02;17.02;;;13.60;99.90;;;;;;2484151;23;20438;-74
2022/05/05 03:37:55;;;;;;;22.25;18.48;;;13.60;99.90;;;;;;2495029;23;20492;-73
2022/05/05 03:38:55;;;;;;;22.23;18.88;;;13.60;99.90;;;;;;2495405;23;20129;-73
2022/05/05 03:39:56;;;;;;;22.77;19.85;;;13.60;99.90;;;;;;2484296;23;20014;-73
2022/05/05 03:40:57;;;;;;;22.13;19.73;;;13.50;99.90;;;;;;2484630;23;20007;-73
2022/05/05 03:41:57;;;;;;;22.17;19.23;;;13.50;99.90;;;;;;2483776;23;20044;-74
2022/05/05 03:42:58;;;;;;;23.88;19.90;;;13.50;99.90;;;;;;2483795;23;20019;-73
2022/05/05 03:43:59;;;;;;;20.90;18.23;;;13.40;99.90;;;;;;2484533;23;20066;-74
2022/05/05 03:44:59;;;;;;;21.38;18.67;;;13.40;99.90;;;;;;2484404;23;20046;-72
2022/05/05 03:46:00;;;;;;;20.90;18.42;;;13.40;99.90;;;;;;2484390;23;20357;-72
2022/05/05 03:47:01;;;;;;;20.60;18.00;;;13.40;99.90;;;;;;2484005;23;20087;-72
2022/05/05 03:48:01;;;;;;;20.42;17.88;;;13.40;99.90;;;;;;2484659;23;20012;-72
2022/05/05 03:49:02;;;;;;;21.73;18.10;;;13.40;99.90;;;;;;2484676;23;20011;-72
2022/05/05 03:50:03;;;;;;;23.80;18.13;;;13.40;99.90;;;;;;2484575;23;20019;-72
2022/05/05 03:51:04;;;;;;;20.48;18.10;;;13.30;99.90;;;;;;2484910;23;20441;-73
2022/05/05 03:52:05;;;;;;;23.15;19.05;;;13.30;99.90;;;;;;2485014;23;20047;-73
2022/05/05 03:53:06;;;;;;;21.83;19.10;;;13.30;99.90;;;;;;2486477;23;20012;-73
2022/05/05 03:54:06;;;;;;;22.15;19.02;;;13.30;99.90;;;;;;2489100;23;20473;-74
2022/05/05 03:55:07;;;;;;;21.42;18.80;;;13.30;99.90;;;;;;2488988;23;20011;-73
2022/05/05 03:56:08;;;;;;;22.33;19.52;;;13.30;99.90;;;;;;2490275;23;20011;-72
2022/05/05 03:57:09;;;;;;;22.27;18.95;;;13.30;99.90;;;;;;2502903;23;20034;-74
2022/05/05 03:58:10;;;;;;;22.38;18.83;;;13.30;99.90;;;;;;2502709;23;20626;-73
2022/05/05 03:59:11;;;;;;;20.80;18.35;;;13.30;99.90;;;;;;2491730;23;20019;-74
2022/05/05 04:00:11;;;;;;;22.83;19.65;;;13.30;99.90;;;;;;2490791;23;20052;-74
2022/05/05 04:01:15;;;;;;;23.05;19.60;;;13.30;99.90;;;;;;2491809;23;20032;-72
2022/05/05 04:02:15;;;;;;;20.58;18.10;;;13.30;99.90;;;;;;2491052;23;20710;-74
2022/05/05 04:03:31;;;;;;;22.42;18.67;;;13.30;99.90;;;;;;2502081;23;20094;-74
2022/05/05 04:04:31;;;;;;;22.33;19.13;;;13.30;99.90;;;;;;2500177;23;20003;-73
2022/05/05 04:05:33;;;;;;;22.42;18.70;;;13.30;99.90;;;;;;2492354;23;20011;-73
2022/05/05 04:06:34;;;;;;;22.73;18.33;;;13.30;99.90;;;;;;2492687;23;20018;-73
2022/05/05 04:07:34;;;;;;;22.67;19.35;;;13.30;99.90;;;;;;2491506;23;20012;-72
2022/05/05 04:08:37;;;;;;;23.35;19.80;;;13.30;99.90;;;;;;2491935;23;20007;-71
2022/05/05 04:09:38;;;;;;;25.08;19.35;;;13.30;99.90;;;;;;2491969;23;20031;-73
2022/05/05 04:10:38;;;;;;;24.48;19.38;;;13.30;99.90;;;;;;2501159;23;20011;-73
2022/05/05 04:11:39;;;;;;;22.30;18.63;;;13.30;99.90;;;;;;2499088;23;20571;-74
2022/05/05 04:12:39;;;;;;;22.63;19.30;;;13.40;99.90;;;;;;2488213;23;20568;-73
2022/05/05 04:13:40;;;;;;;22.98;19.27;;;13.40;99.90;;;;;;2487724;23;20070;-76
2022/05/05 04:14:40;;;;;;;23.15;18.92;;;13.40;99.90;;;;;;2484443;23;20055;-74
2022/05/05 04:15:41;;;;;;;21.00;18.75;;;13.40;99.90;;;;;;2484305;23;20010;-73
2022/05/05 04:16:43;;;;;;;20.70;18.25;;;13.50;99.90;;;;;;2495524;23;20003;-74
2022/05/05 04:17:43;;;;;;;21.70;18.98;;;13.50;99.90;;;;;;2484458;23;20003;-74
2022/05/05 04:18:44;;;;;;;19.95;17.58;;;13.60;99.90;;;;;;2485217;23;20008;-74
2022/05/05 04:19:45;;;;;;;19.73;17.63;;;13.60;99.90;;;;;;2495738;23;20040;-72
2022/05/05 04:20:47;;;;;;;21.92;18.42;;;13.70;99.90;;;;;;2496113;23;20042;-73
2022/05/05 04:21:48;;;;;;;24.58;18.67;;;13.70;99.90;;;;;;2496037;23;20002;-76
2022/05/05 04:22:49;;;;;;;21.17;17.65;;;13.80;99.90;;;;;;2495754;23;20039;-74
2022/05/05 04:23:50;;;;;;;21.02;17.95;;;13.90;99.90;;;;;;2483795;23;20026;-73
2022/05/05 04:24:51;;;;;;;20.30;18.08;;;14.00;99.90;;;;;;2482395;23;20524;-72
2022/05/05 04:25:52;;;;;;;21.33;18.30;;;14.00;99.90;;;;;;2495106;23;20087;-73
2022/05/05 04:26:53;;;;;;;20.92;17.80;;;14.10;99.90;;;;;;2495417;23;20007;-73
2022/05/05 04:27:59;;;;;;;20.25;17.00;;;14.10;99.90;;;;;;2473277;23;20801;-74
2022/05/05 04:29:01;;;;;;;21.95;17.60;;;14.30;99.90;;;;;;2474446;23;20004;-75
2022/05/05 04:30:03;;;;;;;21.33;18.80;;;14.30;99.90;;;;;;2485322;23;20012;-74
2022/05/05 04:31:03;;;;;;;23.00;18.75;;;14.40;99.90;;;;;;2484486;23;20067;-74
2022/05/05 04:32:05;;;;;;;23.60;18.10;;;14.40;99.90;;;;;;2483941;23;20015;-74
2022/05/05 04:33:07;;;;;;;20.90;17.27;;;14.40;99.90;;;;;;2495332;23;20377;-76
2022/05/05 04:34:08;;;;;;;21.15;17.63;;;14.50;99.90;;;;;;2495492;23;20007;-71
2022/05/05 04:35:10;;;;;;;20.08;16.85;;;14.50;99.90;;;;;;2484656;23;20354;-73
2022/05/05 04:36:12;;;;;;;19.00;16.35;;;14.50;99.90;;;;;;2483956;23;20075;-74
2022/05/05 04:37:12;;;;;;;20.50;17.50;;;14.60;99.90;;;;;;2484160;23;20012;-74
2022/05/05 04:38:13;;;;;;;19.05;16.70;;;14.60;99.90;;;;;;2495721;23;20015;-73
2022/05/05 04:39:14;;;;;;;21.67;18.42;;;14.60;99.90;;;;;;2495643;23;20003;-73
2022/05/05 04:40:14;;;;;;;25.45;19.80;;;14.60;99.90;;;;;;2495475;23;20330;-74
2022/05/05 04:41:15;;;;;;;19.60;17.50;;;14.60;99.90;;;;;;2484745;23;20007;-74
2022/05/05 04:42:16;;;;;;;22.75;18.48;;;14.50;99.90;;;;;;2495606;23;20512;-73
2022/05/05 04:43:17;;;;;;;19.50;17.08;;;14.50;99.90;;;;;;2495521;23;20038;-75
2022/05/05 04:44:18;;;;;;;22.73;19.55;;;14.50;99.90;;;;;;2484531;23;20015;-71
2022/05/05 04:45:18;;;;;;;23.85;19.25;;;14.50;99.90;;;;;;2484233;23;20099;-74
2022/05/05 04:46:19;;;;;;;21.27;18.75;;;14.50;99.90;;;;;;2484525;23;20070;-74
2022/05/05 04:47:20;;;;;;;25.45;19.02;;;14.50;99.90;;;;;;2484230;23;20016;-73
2022/05/05 04:48:21;;;;;;;21.73;18.25;;;14.50;99.90;;;;;;2496768;23;20349;-75
2022/05/05 04:49:21;;;;;;;22.77;19.15;;;14.40;99.90;;;;;;2484816;23;20035;-74
2022/05/05 04:50:23;;;;;;;20.63;18.25;;;14.40;99.90;;;;;;2484430;23;20030;-75
2022/05/05 04:51:23;;;;;;;20.17;17.45;;;14.50;99.90;;;;;;2496208;23;20062;-75
2022/05/05 04:52:24;;;;;;;22.30;18.13;;;14.50;99.90;;;;;;2486796;23;20629;-79
2022/05/05 04:53:25;;;;;;;25.60;20.58;;;14.50;99.90;;;;;;2486629;23;20393;-76
2022/05/05 04:54:26;;;;;;;21.15;18.85;;;14.60;99.90;;;;;;2498870;23;20029;-78
2022/05/05 04:55:26;;;;;;;21.85;18.67;;;14.80;99.90;;;;;;2498533;23;20018;-74
2022/05/05 04:56:27;;;;;;;20.25;18.00;;;14.90;99.90;;;;;;2487414;23;20004;-75
2022/05/05 04:57:28;;;;;;;25.20;19.75;;;15.10;99.90;;;;;;2486101;23;20014;-75
2022/05/05 04:58:28;;;;;;;22.08;18.23;;;15.10;99.90;;;;;;2486057;23;20023;-76
2022/05/05 04:59:32;;;;;;;29.40;22.58;;;15.20;99.90;;;;;;2485710;23;20035;-76
2022/05/05 05:00:33;;;;;;;25.60;20.45;;;15.20;99.90;;;;;;2486469;23;20000;-77
2022/05/05 05:01:33;;;;;;;25.00;22.05;;;15.20;99.90;;;;;;2487058;23;19999;-77
2022/05/05 05:02:34;;;;;;;23.77;21.17;;;15.10;99.90;;;;;;2486629;23;20012;-77
2022/05/05 05:03:36;;;;;;;22.95;18.98;;;15.10;99.90;;;;;;2484618;23;20035;-77
2022/05/05 05:04:36;;;;;;;24.52;19.88;;;15.10;99.90;;;;;;2484685;23;20011;-75
2022/05/05 05:05:37;;;;;;;24.15;19.77;;;15.10;99.90;;;;;;2496418;23;20408;-77
2022/05/05 05:06:38;;;;;;;24.73;21.23;;;15.10;99.90;;;;;;2498181;23;20003;-78
2022/05/05 05:07:42;;;;;;;28.60;23.35;;;15.10;99.90;;;;;;2496903;23;20021;-76
2022/05/05 05:08:46;;;;;;;23.98;21.38;;;15.10;99.90;;;;;;2498362;23;20007;-77
2022/05/05 05:09:48;;;;;;;25.83;21.67;;;15.10;99.90;;;;;;2485511;23;20000;-73
2022/05/05 05:10:52;;;;;;;31.48;24.10;;;15.10;99.90;;;;;;2484464;23;20020;-75
2022/05/05 05:11:53;;;;;;;28.77;23.50;;;15.10;99.90;;;;;;2485241;23;20326;-74
2022/05/05 05:12:53;;;;;;;35.80;25.60;;;15.10;99.90;;;;;;2485139;23;20517;-75
2022/05/05 05:13:54;;;;;;;31.88;26.13;;;15.00;99.90;;;;;;2484900;23;20034;-73
2022/05/05 05:14:55;;;;;;;29.20;23.65;;;15.00;99.90;;;;;;2496251;23;20098;-73
2022/05/05 05:15:55;;;;;;;29.27;21.73;;;15.00;99.90;;;;;;2496299;23;20003;-73
2022/05/05 05:16:56;;;;;;;29.23;23.58;;;15.00;99.90;;;;;;2483869;23;20032;-75
2022/05/05 05:17:57;;;;;;;33.63;25.92;;;15.10;99.90;;;;;;2484062;23;20457;-76
2022/05/05 05:18:58;;;;;;;33.80;26.88;;;15.00;99.90;;;;;;2472034;23;20039;-75
2022/05/05 05:19:59;;;;;;;34.33;26.35;;;15.00;99.90;;;;;;2472232;23;20035;-75
2022/05/05 05:20:59;;;;;;;31.58;26.20;;;15.00;99.90;;;;;;2484364;23;20064;-73
2022/05/05 05:22:00;;;;;;;32.88;26.35;;;15.00;99.90;;;;;;2484819;23;20011;-76
2022/05/05 05:23:01;;;;;;;32.42;25.90;;;14.90;99.90;;;;;;2496745;23;20011;-76